< < Back
Terminal Aerodrome Forecast


Current Version              Previous Versions:   1  2  3  4  5  6  7  8  9  

Terminal Aerodrome Forecast

342
FTUS42 KTAE 202300
TAFDHN
TAF
KDHN 202334Z 2100/2124 03004KT P6SM SKC
     FM211400 05005KT P6SM SKC=

Latest METAR

785
SAUS70 KWBC 202300 RRI
MTRDHN
METAR KDHN 202253Z 03003KT 10SM OVC033 18/12 A3017 RMK AO2 SLP212
T01830122


USA.gov is the U.S. government's official web portal to all federal, state and local government web resources and services.